createdAt,value
2022-09-12T00:01:17.595Z,2.10
2022-09-12T00:03:45.575Z,2.33
2022-09-12T00:06:22.385Z,2.50
2022-09-12T00:08:51.176Z,2.55
2022-09-12T00:11:19.808Z,2.17
2022-09-12T00:13:47.733Z,2.10
2022-09-12T00:16:18.926Z,2.35
2022-09-12T00:18:47.740Z,2.03
2022-09-12T00:21:16.068Z,2.20
2022-09-12T00:23:44.272Z,2.30
2022-09-12T00:26:13.032Z,2.25
2022-09-12T00:28:42.654Z,2.22
2022-09-12T00:31:12.997Z,2.28
2022-09-12T00:33:42.760Z,2.10
2022-09-12T00:36:14.817Z,1.90
2022-09-12T00:38:43.012Z,2.00
2022-09-12T00:41:16.377Z,2.40
2022-09-12T00:43:46.087Z,2.13
2022-09-12T00:46:23.835Z,1.92
2022-09-12T00:48:59.721Z,2.17
2022-09-12T00:51:30.586Z,2.22
2022-09-12T00:54:02.002Z,2.47
2022-09-12T00:56:30.737Z,2.10
2022-09-12T00:59:04.971Z,2.40
2022-09-12T01:01:33.216Z,2.00
2022-09-12T01:04:03.990Z,2.22
2022-09-12T01:06:36.686Z,2.00
2022-09-12T01:09:05.575Z,2.40
2022-09-12T01:11:35.643Z,2.22
2022-09-12T01:14:03.665Z,2.20
2022-09-12T01:16:31.993Z,2.30
2022-09-12T01:19:17.102Z,2.10
2022-09-12T01:22:00.377Z,2.20
2022-09-12T01:25:00.491Z,1.90
2022-09-12T01:27:44.687Z,2.17
2022-09-12T01:30:49.451Z,1.83
2022-09-12T01:33:44.384Z,1.80
2022-09-12T01:36:35.963Z,1.90
2022-09-12T01:39:06.687Z,1.90
2022-09-12T01:41:50.043Z,1.83
2022-09-12T01:44:31.014Z,1.70
2022-09-12T01:47:08.527Z,1.80
2022-09-12T01:49:41.738Z,2.00
2022-09-12T01:52:16.501Z,1.75
2022-09-12T01:54:50.498Z,1.60
2022-09-12T01:57:25.686Z,1.77
2022-09-12T01:59:58.551Z,1.80
2022-09-12T02:02:32.423Z,2.05
2022-09-12T02:05:05.761Z,1.90
2022-09-12T02:07:39.041Z,1.80
2022-09-12T02:10:11.762Z,1.50
2022-09-12T02:12:45.944Z,1.60
2022-09-12T02:15:18.553Z,1.83
2022-09-12T02:17:51.588Z,1.80
2022-09-12T02:20:44.357Z,1.70
2022-09-12T02:23:16.645Z,1.90
2022-09-12T02:25:48.946Z,1.95
2022-09-12T02:28:21.675Z,1.95
2022-09-12T02:30:57.591Z,1.67
2022-09-12T02:33:31.560Z,1.80
2022-09-12T02:36:05.648Z,2.20
2022-09-12T02:38:39.134Z,2.40
2022-09-12T02:41:07.562Z,2.05
2022-09-12T02:43:37.811Z,2.20
2022-09-12T02:46:08.937Z,2.08
2022-09-12T02:48:43.179Z,2.10
2022-09-12T02:51:11.527Z,1.80
2022-09-12T02:53:40.500Z,2.20
2022-09-12T02:56:12.039Z,2.10
2022-09-12T02:58:40.274Z,1.90
2022-09-12T03:01:20.517Z,1.90
2022-09-12T03:04:14.984Z,2.17
2022-09-12T03:06:57.534Z,1.73
2022-09-12T03:09:37.780Z,1.98
2022-09-12T03:12:21.423Z,1.42
2022-09-12T03:15:17.336Z,2.25
2022-09-12T03:17:58.015Z,1.88
2022-09-12T03:20:41.848Z,1.90
2022-09-12T03:23:17.312Z,1.90
2022-09-12T03:25:49.959Z,1.77
2022-09-12T03:28:20.960Z,1.80
2022-09-12T03:30:51.489Z,1.50
2022-09-12T03:33:21.131Z,1.85
2022-09-12T03:35:51.344Z,2.10
2022-09-12T03:38:19.991Z,1.75
2022-09-12T03:40:52.689Z,1.83
2022-09-12T03:43:22.571Z,1.55
2022-09-12T03:45:52.163Z,1.83
2022-09-12T03:48:20.368Z,1.60
2022-09-12T03:50:48.424Z,1.90
2022-09-12T03:53:17.743Z,2.28
2022-09-12T03:55:46.037Z,1.60
2022-09-12T03:58:16.351Z,1.80
2022-09-12T04:00:44.357Z,1.70
2022-09-12T04:03:12.252Z,1.70
2022-09-12T04:05:40.516Z,1.85
2022-09-12T04:08:08.496Z,1.67
2022-09-12T04:10:37.816Z,1.77
2022-09-12T04:13:05.765Z,1.73
2022-09-12T04:15:33.732Z,1.80
2022-09-12T04:18:05.808Z,1.65
2022-09-12T04:20:35.003Z,1.75
2022-09-12T04:23:02.892Z,1.80
2022-09-12T04:25:31.492Z,1.60
2022-09-12T04:28:01.066Z,1.80
2022-09-12T04:30:31.252Z,1.70
2022-09-12T04:32:59.245Z,1.80
2022-09-12T04:35:27.856Z,2.00
2022-09-12T04:37:55.774Z,1.77
2022-09-12T04:40:23.742Z,2.20
2022-09-12T04:42:51.679Z,2.03
2022-09-12T04:45:21.060Z,1.80
2022-09-12T04:47:49.084Z,2.10
2022-09-12T04:50:17.208Z,1.90
2022-09-12T04:52:45.273Z,1.80
2022-09-12T04:55:13.324Z,2.05
2022-09-12T04:57:41.386Z,2.10
2022-09-12T05:00:13.715Z,1.90
2022-09-12T05:02:43.231Z,1.80
2022-09-12T05:05:12.508Z,1.67
2022-09-12T05:07:40.484Z,2.25
2022-09-12T05:10:09.827Z,2.05
2022-09-12T05:12:37.898Z,1.92
2022-09-12T05:15:06.864Z,2.00
2022-09-12T05:17:34.744Z,1.92
2022-09-12T05:20:04.538Z,1.85
2022-09-12T05:22:32.456Z,1.88
2022-09-12T05:25:00.465Z,1.92
2022-09-12T05:27:28.379Z,2.25
2022-09-12T05:29:56.411Z,1.88
2022-09-12T05:32:24.306Z,1.98
2022-09-12T05:34:52.242Z,1.90
2022-09-12T05:37:21.593Z,1.80
2022-09-12T05:39:49.632Z,2.08
2022-09-12T05:42:17.525Z,2.13
2022-09-12T05:44:47.004Z,2.40
2022-09-12T05:47:15.500Z,2.22
2022-09-12T05:49:45.219Z,2.20
2022-09-12T05:52:13.507Z,2.00
2022-09-12T05:54:42.859Z,2.10
2022-09-12T05:57:10.888Z,2.20
2022-09-12T05:59:38.936Z,2.33
2022-09-12T06:02:07.405Z,2.28
2022-09-12T06:04:35.391Z,2.35
2022-09-12T06:07:04.805Z,2.20
2022-09-12T06:09:32.680Z,2.47
2022-09-12T06:12:02.045Z,2.20
2022-09-12T06:14:30.172Z,2.28
2022-09-12T06:16:58.135Z,2.33
2022-09-12T06:19:27.911Z,2.40
2022-09-12T06:21:56.053Z,2.00
2022-09-12T06:24:24.578Z,2.30
2022-09-12T06:26:53.668Z,2.08
2022-09-12T06:29:23.204Z,2.20
2022-09-12T06:31:51.202Z,2.00
2022-09-12T06:34:19.604Z,2.60
2022-09-12T06:36:49.329Z,2.15
2022-09-12T06:39:18.591Z,2.10
2022-09-12T06:41:47.071Z,2.30
2022-09-12T06:44:18.045Z,2.20
2022-09-12T06:46:47.756Z,2.25
2022-09-12T06:49:16.027Z,2.00
2022-09-12T06:51:44.526Z,2.10
2022-09-12T06:54:14.191Z,2.05
2022-09-12T06:56:42.622Z,1.92
2022-09-12T06:59:10.996Z,2.13
2022-09-12T07:01:40.120Z,2.38
2022-09-12T07:04:10.406Z,2.50
2022-09-12T07:06:40.600Z,2.28
2022-09-12T07:09:10.953Z,2.88
2022-09-12T07:11:40.533Z,2.40
2022-09-12T07:14:11.160Z,1.88
2022-09-12T07:16:39.291Z,2.40
2022-09-12T07:19:09.786Z,2.00
2022-09-12T07:21:40.227Z,2.00
2022-09-12T07:24:09.920Z,2.40
2022-09-12T07:26:38.411Z,1.70
2022-09-12T07:29:35.512Z,2.20
2022-09-12T07:31:55.002Z,2.10
2022-09-12T07:34:24.468Z,1.88
2022-09-12T07:36:52.748Z,2.17
2022-09-12T07:39:20.681Z,2.08
2022-09-12T07:41:48.623Z,2.37
2022-09-12T07:44:16.513Z,2.30
2022-09-12T07:46:44.440Z,2.38
2022-09-12T07:49:13.520Z,2.10
2022-09-12T07:51:43.409Z,2.33
2022-09-12T07:54:11.963Z,2.10
2022-09-12T07:56:40.898Z,2.08
2022-09-12T07:59:08.973Z,2.38
2022-09-12T08:01:37.009Z,2.05
2022-09-12T08:04:05.287Z,2.35
2022-09-12T08:06:36.158Z,2.10
2022-09-12T08:09:07.838Z,2.35
2022-09-12T08:11:36.358Z,2.13
2022-09-12T08:14:05.770Z,2.47
2022-09-12T08:16:35.141Z,2.10
2022-09-12T08:19:04.537Z,2.47
2022-09-12T08:21:34.276Z,2.53
2022-09-12T08:24:07.053Z,4.25
2022-09-12T08:26:36.109Z,5.10
2022-09-12T08:29:04.442Z,3.85
2022-09-12T08:31:36.539Z,3.22
2022-09-12T08:34:05.519Z,4.43
2022-09-12T08:36:33.932Z,3.80
2022-09-12T08:39:04.308Z,4.13
2022-09-12T08:41:37.587Z,3.30
2022-09-12T08:44:26.153Z,3.20
2022-09-12T08:47:14.830Z,2.45
2022-09-12T08:49:52.410Z,2.42
2022-09-12T08:52:27.701Z,2.28
2022-09-12T08:54:56.536Z,2.30
2022-09-12T08:57:25.998Z,3.38
2022-09-12T08:59:54.800Z,2.83
2022-09-12T09:02:42.374Z,2.88
2022-09-12T09:05:20.996Z,2.40
2022-09-12T09:08:14.067Z,2.75
2022-09-12T09:10:50.334Z,3.08
2022-09-12T09:13:52.083Z,2.70
2022-09-12T09:16:30.645Z,2.25
2022-09-12T09:19:01.171Z,2.38
2022-09-12T09:21:33.734Z,2.85
2022-09-12T09:24:06.650Z,2.75
2022-09-12T09:26:44.510Z,2.17
2022-09-12T09:29:18.203Z,2.80
2022-09-12T09:31:49.676Z,2.75
2022-09-12T09:34:21.475Z,2.80
2022-09-12T09:36:58.244Z,2.47
2022-09-12T09:39:39.246Z,2.63
2022-09-12T09:42:19.304Z,2.60
2022-09-12T09:44:49.465Z,2.92
2022-09-12T09:47:19.307Z,2.00
2022-09-12T09:49:47.724Z,2.40
2022-09-12T09:52:17.658Z,2.20
2022-09-12T09:54:50.893Z,2.65
2022-09-12T09:57:42.209Z,2.72
2022-09-12T10:00:32.899Z,2.33
2022-09-12T10:03:04.785Z,2.10
2022-09-12T10:05:36.081Z,2.60
2022-09-12T10:08:07.912Z,2.60
2022-09-12T10:10:35.824Z,2.60
2022-09-12T10:13:24.448Z,2.63
2022-09-12T10:16:02.775Z,2.38
2022-09-12T10:18:42.488Z,2.50
2022-09-12T10:21:22.075Z,2.42
2022-09-12T10:23:54.448Z,2.28
2022-09-12T10:26:22.987Z,2.80
2022-09-12T10:28:54.170Z,2.65
2022-09-12T10:31:30.260Z,2.35
2022-09-12T10:34:01.022Z,2.40
2022-09-12T10:36:38.627Z,2.47
2022-09-12T10:39:07.283Z,1.80
2022-09-12T10:41:40.028Z,2.15
2022-09-12T10:44:10.125Z,1.80
2022-09-12T10:46:40.095Z,2.05
2022-09-12T10:49:26.507Z,2.42
2022-09-12T10:51:56.476Z,2.42
2022-09-12T10:54:28.088Z,2.10
2022-09-12T10:57:30.688Z,1.80
2022-09-12T11:00:14.730Z,2.20
2022-09-12T11:03:16.441Z,2.20
2022-09-12T11:05:56.429Z,2.08
2022-09-12T11:08:52.156Z,2.15
2022-09-12T11:11:40.092Z,2.20
2022-09-12T11:14:37.800Z,2.60
2022-09-12T11:17:14.528Z,2.15
2022-09-12T11:20:02.419Z,2.50
2022-09-12T11:22:44.037Z,2.10
2022-09-12T11:25:28.677Z,1.95
2022-09-12T11:28:24.468Z,2.38
2022-09-12T11:31:07.278Z,2.20
2022-09-12T11:33:43.572Z,3.20
2022-09-12T11:36:25.313Z,2.00
2022-09-12T11:39:03.192Z,2.40
2022-09-12T11:41:35.809Z,2.28
2022-09-12T11:44:12.065Z,2.60
2022-09-12T11:46:41.723Z,2.50
2022-09-12T11:49:20.253Z,2.08
2022-09-12T11:51:54.998Z,2.28
2022-09-12T11:54:30.518Z,2.10
2022-09-12T11:57:16.876Z,2.40
2022-09-12T11:59:52.260Z,1.95
2022-09-12T12:02:27.785Z,2.30
2022-09-12T12:05:06.101Z,1.73
2022-09-12T12:07:45.656Z,2.10
2022-09-12T12:10:26.398Z,2.13
2022-09-12T12:12:57.260Z,2.35
2022-09-12T12:15:27.246Z,1.88
2022-09-12T12:18:03.899Z,2.35
2022-09-12T12:20:32.339Z,2.03
2022-09-12T12:23:02.138Z,2.05
2022-09-12T12:25:41.849Z,2.17
2022-09-12T12:28:12.672Z,2.00
2022-09-12T12:31:03.317Z,1.80
2022-09-12T12:34:02.122Z,2.35
2022-09-12T12:36:34.520Z,2.50
2022-09-12T12:39:45.184Z,2.35
2022-09-12T12:43:04.994Z,2.20
2022-09-12T12:46:00.236Z,2.10
2022-09-12T12:48:51.540Z,1.73
2022-09-12T12:51:42.909Z,2.30
2022-09-12T12:54:56.287Z,2.28
2022-09-12T12:57:48.023Z,2.10
2022-09-12T13:00:34.028Z,1.95
2022-09-12T13:03:10.998Z,2.25
2022-09-12T13:05:45.212Z,2.10
2022-09-12T13:08:31.768Z,1.85
2022-09-12T13:11:02.287Z,2.03
2022-09-12T13:13:35.705Z,1.70
2022-09-12T13:16:04.760Z,1.70
2022-09-12T13:18:44.619Z,2.00
2022-09-12T13:21:15.917Z,2.08
2022-09-12T13:23:45.199Z,2.13
2022-09-12T13:26:15.609Z,1.90
2022-09-12T13:28:48.096Z,2.05
2022-09-12T13:31:25.724Z,2.60
2022-09-12T13:33:56.488Z,2.30
2022-09-12T13:36:49.045Z,1.80
2022-09-12T13:39:21.530Z,2.10
2022-09-12T13:42:14.635Z,1.67
2022-09-12T13:44:46.828Z,2.35
2022-09-12T13:47:17.517Z,2.30
2022-09-12T13:49:47.171Z,2.15
2022-09-12T13:52:20.062Z,1.80
2022-09-12T13:54:51.292Z,2.00
2022-09-12T13:57:34.535Z,2.03
2022-09-12T14:00:07.023Z,2.70
2022-09-12T14:02:36.819Z,2.40
2022-09-12T14:05:13.624Z,2.00
2022-09-12T14:07:55.284Z,1.98
2022-09-12T14:10:30.236Z,1.90
2022-09-12T14:12:59.713Z,2.63
2022-09-12T14:15:32.657Z,2.00
2022-09-12T14:18:02.202Z,2.38
2022-09-12T14:20:33.067Z,2.17
2022-09-12T14:23:03.586Z,2.00
2022-09-12T14:25:37.603Z,2.22
2022-09-12T14:28:06.129Z,2.20
2022-09-12T14:30:37.413Z,1.90
2022-09-12T14:33:15.240Z,2.10
2022-09-12T14:35:45.732Z,2.10
2022-09-12T14:38:24.945Z,2.20
2022-09-12T14:41:01.089Z,2.08
2022-09-12T14:43:34.657Z,2.13
2022-09-12T14:46:07.374Z,2.05
2022-09-12T14:48:44.478Z,2.45
2022-09-12T14:51:22.344Z,2.08
2022-09-12T14:53:51.007Z,1.80
2022-09-12T14:56:22.386Z,2.53
2022-09-12T14:58:50.524Z,2.25
2022-09-12T15:01:27.720Z,2.22
2022-09-12T15:03:57.687Z,2.20
2022-09-12T15:06:29.472Z,2.20
2022-09-12T15:08:59.541Z,2.05
2022-09-12T15:11:27.809Z,2.20
2022-09-12T15:13:56.151Z,2.10
2022-09-12T15:16:24.107Z,2.50
2022-09-12T15:18:53.562Z,2.38
2022-09-12T15:21:22.335Z,1.95
2022-09-12T15:23:51.640Z,2.35
2022-09-12T15:26:21.831Z,2.45
2022-09-12T15:28:50.120Z,2.10
2022-09-12T15:31:24.711Z,2.42
2022-09-12T15:33:54.745Z,2.10
2022-09-12T15:36:24.850Z,2.08
2022-09-12T15:38:53.752Z,2.38
2022-09-12T15:41:23.918Z,2.40
2022-09-12T15:43:52.498Z,2.13
2022-09-12T15:46:20.971Z,2.20
2022-09-12T15:48:48.940Z,2.15
2022-09-12T15:51:21.542Z,2.47
2022-09-12T15:53:50.885Z,2.17
2022-09-12T15:56:21.084Z,2.50
2022-09-12T15:59:00.045Z,2.70
2022-09-12T16:01:29.289Z,2.33
2022-09-12T16:03:57.861Z,3.05
2022-09-12T16:06:28.013Z,2.78
2022-09-12T16:08:56.279Z,2.22
2022-09-12T16:11:28.172Z,2.33
2022-09-12T16:13:57.234Z,2.50
2022-09-12T16:16:25.477Z,2.58
2022-09-12T16:18:53.470Z,2.30
2022-09-12T16:21:21.507Z,2.42
2022-09-12T16:23:51.117Z,2.20
2022-09-12T16:26:19.032Z,2.50
2022-09-12T16:28:47.206Z,2.70
2022-09-12T16:31:16.005Z,2.47
2022-09-12T16:33:44.173Z,2.50
2022-09-12T16:36:14.863Z,2.33
2022-09-12T16:38:43.574Z,2.40
2022-09-12T16:41:14.175Z,2.45
2022-09-12T16:43:43.075Z,2.92
2022-09-12T16:46:13.856Z,2.50
2022-09-12T16:48:48.101Z,2.80
2022-09-12T16:51:20.823Z,2.60
2022-09-12T16:53:50.010Z,2.88
2022-09-12T16:56:19.664Z,2.55
2022-09-12T16:58:48.023Z,2.83
2022-09-12T17:01:18.186Z,2.58
2022-09-12T17:03:46.274Z,2.95
2022-09-12T17:06:16.514Z,2.85
2022-09-12T17:08:49.752Z,2.63
2022-09-12T17:11:21.279Z,3.53
2022-09-12T17:14:06.672Z,3.10
2022-09-12T17:16:36.290Z,3.30
2022-09-12T17:19:04.712Z,3.58
2022-09-12T17:21:32.847Z,3.22
2022-09-12T17:24:00.808Z,3.60
2022-09-12T17:26:30.147Z,3.22
2022-09-12T17:28:58.014Z,3.22
2022-09-12T17:31:26.680Z,3.38
2022-09-12T17:33:58.824Z,3.38
2022-09-12T17:36:27.777Z,3.50
2022-09-12T17:38:55.860Z,3.58
2022-09-12T17:41:25.981Z,3.33
2022-09-12T17:43:57.350Z,3.38
2022-09-12T17:46:27.856Z,3.40
2022-09-12T17:48:57.381Z,3.20
2022-09-12T17:51:28.914Z,3.25
2022-09-12T17:53:59.087Z,3.17
2022-09-12T17:56:28.051Z,3.17
2022-09-12T17:58:58.517Z,3.20
2022-09-12T18:01:47.675Z,3.45
2022-09-12T18:04:15.668Z,3.67
2022-09-12T18:06:48.147Z,4.28
2022-09-12T18:09:19.424Z,3.53
2022-09-12T18:11:48.480Z,4.10
2022-09-12T18:14:19.145Z,4.20
2022-09-12T18:16:48.333Z,3.83
2022-09-12T18:19:16.941Z,3.80
2022-09-12T18:21:45.069Z,3.75
2022-09-12T18:24:13.413Z,4.25
2022-09-12T18:26:43.582Z,3.65
2022-09-12T18:29:12.256Z,3.50
2022-09-12T18:31:46.869Z,3.95
2022-09-12T18:34:19.170Z,4.43
2022-09-12T18:36:48.864Z,4.03
2022-09-12T18:39:17.410Z,4.07
2022-09-12T18:41:48.214Z,3.97
2022-09-12T18:44:18.621Z,3.92
2022-09-12T18:46:48.041Z,3.63
2022-09-12T18:49:17.574Z,3.70
2022-09-12T18:51:45.554Z,4.03
2022-09-12T18:54:15.310Z,3.40
2022-09-12T18:56:45.623Z,3.25
2022-09-12T18:59:14.929Z,3.22
2022-09-12T19:01:43.869Z,3.45
2022-09-12T19:04:15.092Z,3.40
2022-09-12T19:06:44.926Z,3.38
2022-09-12T19:09:14.748Z,3.20
2022-09-12T19:11:49.480Z,3.08
2022-09-12T19:14:18.454Z,3.45
2022-09-12T19:16:46.402Z,3.25
2022-09-12T19:19:15.783Z,3.50
2022-09-12T19:21:44.406Z,3.10
2022-09-12T19:24:14.417Z,3.17
2022-09-12T19:26:42.909Z,3.47
2022-09-12T19:29:14.746Z,3.20
2022-09-12T19:31:42.833Z,2.80
2022-09-12T19:34:11.803Z,3.40
2022-09-12T19:36:46.723Z,3.60
2022-09-12T19:39:16.181Z,3.67
2022-09-12T19:41:44.787Z,3.22
2022-09-12T19:44:12.996Z,2.95
2022-09-12T19:46:41.749Z,2.95
2022-09-12T19:49:12.023Z,2.70
2022-09-12T19:51:41.786Z,3.03
2022-09-12T19:54:09.862Z,2.85
2022-09-12T19:56:38.407Z,3.03
2022-09-12T19:59:06.657Z,3.10
2022-09-12T20:01:36.898Z,3.03
2022-09-12T20:04:06.859Z,4.82
2022-09-12T20:06:35.436Z,3.08
2022-09-12T20:09:05.385Z,3.25
2022-09-12T20:11:33.509Z,3.85
2022-09-12T20:14:01.692Z,2.78
2022-09-12T20:16:30.279Z,2.63
2022-09-12T20:19:00.053Z,2.72
2022-09-12T20:21:33.060Z,2.35
2022-09-12T20:24:03.101Z,2.60
2022-09-12T20:26:32.895Z,1.88
2022-09-12T20:29:01.562Z,1.73
2022-09-12T20:31:30.391Z,1.08
2022-09-12T20:34:00.862Z,1.20
2022-09-12T20:36:29.116Z,1.38
2022-09-12T20:39:00.170Z,1.73
2022-09-12T20:41:30.394Z,1.10
2022-09-12T20:44:00.128Z,1.25
2022-09-12T20:46:29.695Z,1.10
2022-09-12T20:48:58.677Z,1.17
2022-09-12T20:51:29.553Z,1.20
2022-09-12T20:53:58.612Z,1.15
2022-09-12T20:56:31.724Z,1.20
2022-09-12T20:59:01.557Z,1.40
2022-09-12T21:01:31.410Z,1.30
2022-09-12T21:04:01.193Z,0.90
2022-09-12T21:06:29.628Z,1.15
2022-09-12T21:09:00.644Z,1.20
2022-09-12T21:11:29.567Z,1.27
2022-09-12T21:13:58.607Z,1.60
2022-09-12T21:16:28.149Z,1.25
2022-09-12T21:18:58.081Z,1.20
2022-09-12T21:21:27.219Z,1.40
2022-09-12T21:23:59.351Z,1.65
2022-09-12T21:26:28.385Z,1.23
2022-09-12T21:28:56.510Z,1.30
2022-09-12T21:31:25.161Z,2.10
2022-09-12T21:33:54.766Z,1.80
2022-09-12T21:36:22.863Z,1.40
2022-09-12T21:38:52.492Z,1.60
2022-09-12T21:41:20.422Z,1.50
2022-09-12T21:43:49.056Z,1.60
2022-09-12T21:46:17.463Z,1.58
2022-09-12T21:48:45.625Z,1.27
2022-09-12T21:51:14.905Z,1.75
2022-09-12T21:53:43.321Z,1.52
2022-09-12T21:56:14.124Z,1.38
2022-09-12T21:58:42.191Z,1.50
2022-09-12T22:01:12.629Z,1.40
2022-09-12T22:03:43.158Z,1.40
2022-09-12T22:06:11.173Z,1.60
2022-09-12T22:08:40.455Z,1.30
2022-09-12T22:11:10.399Z,1.55
2022-09-12T22:13:40.034Z,1.17
2022-09-12T22:16:08.586Z,1.60
2022-09-12T22:18:38.252Z,1.30
2022-09-12T22:21:08.897Z,1.60
2022-09-12T22:23:54.181Z,1.17
2022-09-12T22:26:23.619Z,1.40
2022-09-12T22:28:52.472Z,1.60
2022-09-12T22:31:20.461Z,1.17
2022-09-12T22:33:48.785Z,1.52
2022-09-12T22:36:17.710Z,1.40
2022-09-12T22:38:45.889Z,1.58
2022-09-12T22:41:14.278Z,1.20
2022-09-12T22:43:43.896Z,1.20
2022-09-12T22:46:13.390Z,1.33
2022-09-12T22:48:42.844Z,1.50
2022-09-12T22:51:11.543Z,1.40
2022-09-12T22:53:40.160Z,1.42
2022-09-12T22:56:09.284Z,1.05
2022-09-12T22:58:37.908Z,1.20
2022-09-12T23:01:08.097Z,1.35
2022-09-12T23:03:36.465Z,1.58
2022-09-12T23:06:05.721Z,1.33
2022-09-12T23:08:36.251Z,1.50
2022-09-12T23:11:05.844Z,1.50
2022-09-12T23:13:34.364Z,1.33
2022-09-12T23:16:04.016Z,1.40
2022-09-12T23:18:36.002Z,1.38
2022-09-12T23:21:06.775Z,1.40
2022-09-12T23:23:35.613Z,1.38
2022-09-12T23:26:06.259Z,1.23
2022-09-12T23:28:35.285Z,1.55
2022-09-12T23:31:04.113Z,1.30
2022-09-12T23:33:34.149Z,1.70
2022-09-12T23:36:03.160Z,1.50
2022-09-12T23:38:31.879Z,1.50
2022-09-12T23:41:00.984Z,1.42
2022-09-12T23:43:30.900Z,1.38
2022-09-12T23:45:59.660Z,1.50
2022-09-12T23:48:28.251Z,1.40
2022-09-12T23:50:57.853Z,1.40
2022-09-12T23:53:26.308Z,1.60
2022-09-12T23:55:54.612Z,1.50
2022-09-12T23:58:23.341Z,1.30
